createdAt,value
2018-11-21T00:00:14.042Z,0.90
2018-11-21T00:02:42.662Z,0.90
2018-11-21T00:05:11.299Z,0.90
2018-11-21T00:07:39.859Z,0.90
2018-11-21T00:10:10.476Z,0.90
2018-11-21T00:12:39.832Z,0.90
2018-11-21T00:15:10.208Z,0.90
2018-11-21T00:17:38.852Z,0.90
2018-11-21T00:20:09.108Z,0.90
2018-11-21T00:22:37.708Z,0.90
2018-11-21T00:25:06.298Z,0.90
2018-11-21T00:27:34.882Z,0.90
2018-11-21T00:30:03.493Z,0.90
2018-11-21T00:32:32.083Z,0.90
2018-11-21T00:35:00.686Z,0.90
2018-11-21T00:37:29.239Z,0.80
2018-11-21T00:39:57.843Z,0.80
2018-11-21T00:42:26.454Z,0.80
2018-11-21T00:44:55.011Z,0.80
2018-11-21T00:47:23.610Z,0.80
2018-11-21T00:49:52.161Z,0.80
2018-11-21T00:52:20.784Z,0.70
2018-11-21T00:54:49.358Z,0.60
2018-11-21T00:57:17.910Z,0.60
2018-11-21T00:59:46.517Z,0.60
2018-11-21T01:02:15.079Z,0.60
2018-11-21T01:04:43.678Z,0.60
2018-11-21T01:07:12.257Z,0.60
2018-11-21T01:09:40.864Z,0.50
2018-11-21T01:12:09.408Z,0.60
2018-11-21T01:14:38.012Z,0.60
2018-11-21T01:17:06.555Z,0.60
2018-11-21T01:19:35.118Z,0.50
2018-11-21T01:22:03.702Z,0.60
2018-11-21T01:24:32.295Z,0.50
2018-11-21T01:27:00.846Z,0.50
2018-11-21T01:29:29.406Z,0.40
2018-11-21T01:31:58.020Z,0.40
2018-11-21T01:34:26.559Z,0.40
2018-11-21T01:36:55.168Z,0.40
2018-11-21T01:39:23.770Z,0.40
2018-11-21T01:41:52.361Z,0.40
2018-11-21T01:44:20.956Z,0.40
2018-11-21T01:46:49.566Z,0.30
2018-11-21T01:49:18.156Z,0.30
2018-11-21T01:51:46.756Z,0.30
2018-11-21T01:54:15.378Z,0.20
2018-11-21T01:56:43.936Z,0.30
2018-11-21T01:59:12.494Z,0.40
2018-11-21T02:01:41.077Z,0.30
2018-11-21T02:04:09.709Z,0.40
2018-11-21T02:06:38.347Z,0.40
2018-11-21T02:09:10.007Z,0.30
2018-11-21T02:11:38.766Z,0.20
2018-11-21T02:14:07.444Z,0.10
2018-11-21T02:16:36.056Z,0.10
2018-11-21T02:19:04.974Z,0.20
2018-11-21T02:21:33.552Z,0.20
2018-11-21T02:24:02.141Z,0.30
2018-11-21T02:26:30.726Z,0.30
2018-11-21T02:28:59.314Z,0.40
2018-11-21T02:31:27.940Z,0.40
2018-11-21T02:33:56.499Z,0.40
2018-11-21T02:36:25.150Z,0.40
2018-11-21T02:38:53.708Z,0.40
2018-11-21T02:41:22.335Z,0.40
2018-11-21T02:43:50.926Z,0.40
2018-11-21T02:46:19.527Z,0.40
2018-11-21T02:48:48.436Z,0.40
2018-11-21T02:51:17.006Z,0.40
2018-11-21T02:53:45.616Z,0.40
2018-11-21T02:56:14.206Z,0.40
2018-11-21T02:58:42.810Z,0.40
2018-11-21T03:01:11.404Z,0.30
2018-11-21T03:03:40.004Z,0.40
2018-11-21T03:06:08.572Z,0.40
2018-11-21T03:08:37.198Z,0.40
2018-11-21T03:11:05.781Z,0.40
2018-11-21T03:13:34.396Z,0.40
2018-11-21T03:16:02.973Z,0.40
2018-11-21T03:18:31.590Z,0.40
2018-11-21T03:21:00.180Z,0.40
2018-11-21T03:23:28.776Z,0.40
2018-11-21T03:25:57.380Z,0.40
2018-11-21T03:28:25.950Z,0.40
2018-11-21T03:30:54.553Z,0.40
2018-11-21T03:33:23.173Z,0.40
2018-11-21T03:35:51.735Z,0.40
2018-11-21T03:38:20.366Z,0.30
2018-11-21T03:40:48.972Z,0.30
2018-11-21T03:43:17.550Z,0.40
2018-11-21T03:45:46.138Z,0.40
2018-11-21T03:48:14.744Z,0.40
2018-11-21T03:50:43.303Z,0.30
2018-11-21T03:53:11.915Z,0.40
2018-11-21T03:55:40.514Z,0.40
2018-11-21T03:58:09.322Z,0.40
2018-11-21T04:00:37.870Z,0.30
2018-11-21T04:03:06.475Z,0.30
2018-11-21T04:05:35.027Z,0.30
2018-11-21T04:08:03.579Z,0.20
2018-11-21T04:10:32.186Z,0.20
2018-11-21T04:13:00.755Z,0.20
2018-11-21T04:15:29.486Z,0.20
2018-11-21T04:17:58.034Z,0.20
2018-11-21T04:20:26.664Z,0.20
2018-11-21T04:22:55.390Z,0.20
2018-11-21T04:25:23.979Z,0.10
2018-11-21T04:27:52.577Z,0.10
2018-11-21T04:30:21.135Z,0.10
2018-11-21T04:32:49.696Z,0.10
2018-11-21T04:35:18.302Z,0.10
2018-11-21T04:37:46.851Z,0.20
2018-11-21T04:40:15.461Z,0.30
2018-11-21T04:42:44.023Z,0.30
2018-11-21T04:45:12.614Z,0.30
2018-11-21T04:47:41.164Z,0.30
2018-11-21T04:50:09.808Z,0.20
2018-11-21T04:52:38.398Z,0.10
2018-11-21T04:55:07.998Z,0.00
2018-11-21T04:57:36.637Z,0.10
2018-11-21T05:00:07.294Z,0.10
2018-11-21T05:02:35.839Z,0.20
2018-11-21T05:05:04.816Z,0.20
2018-11-21T05:07:33.406Z,0.30
2018-11-21T05:10:02.023Z,0.30
2018-11-21T05:12:30.681Z,0.40
2018-11-21T05:14:59.230Z,0.40
2018-11-21T05:17:27.831Z,0.40
2018-11-21T05:19:56.402Z,0.50
2018-11-21T05:22:25.000Z,0.50
2018-11-21T05:24:53.566Z,0.50
2018-11-21T05:27:22.272Z,0.50
2018-11-21T05:29:50.864Z,0.60
2018-11-21T05:32:19.459Z,0.60
2018-11-21T05:34:48.059Z,0.60
2018-11-21T05:37:16.619Z,0.60
2018-11-21T05:39:45.229Z,0.60
2018-11-21T05:42:13.820Z,0.70
2018-11-21T05:44:42.578Z,0.60
2018-11-21T05:47:11.204Z,0.60
2018-11-21T05:49:39.813Z,0.60
2018-11-21T05:52:08.396Z,0.70
2018-11-21T05:54:36.987Z,0.70
2018-11-21T05:57:05.595Z,0.70
2018-11-21T05:59:34.199Z,0.70
2018-11-21T06:02:02.806Z,0.70
2018-11-21T06:04:31.399Z,0.70
2018-11-21T06:07:00.001Z,0.70
2018-11-21T06:09:28.580Z,0.90
2018-11-21T06:11:57.177Z,0.90
2018-11-21T06:14:25.736Z,0.90
2018-11-21T06:16:54.328Z,0.80
2018-11-21T06:19:22.904Z,0.90
2018-11-21T06:21:51.513Z,1.00
2018-11-21T06:24:20.171Z,0.90
2018-11-21T06:26:54.213Z,1.00
2018-11-21T06:29:22.831Z,1.00
2018-11-21T06:31:51.437Z,1.00
2018-11-21T06:34:20.049Z,1.00
2018-11-21T06:36:48.643Z,0.90
2018-11-21T06:39:18.179Z,0.90
2018-11-21T06:41:46.339Z,1.00
2018-11-21T06:44:14.893Z,1.00
2018-11-21T06:46:43.561Z,0.90
2018-11-21T06:49:12.518Z,0.90
2018-11-21T06:51:41.317Z,1.00
2018-11-21T06:54:11.997Z,1.00
2018-11-21T06:56:40.638Z,0.90
2018-11-21T06:59:09.241Z,0.90
2018-11-21T07:01:38.882Z,0.90
2018-11-21T07:04:07.506Z,1.00
2018-11-21T07:06:36.073Z,0.90
2018-11-21T07:09:08.325Z,0.90
2018-11-21T07:11:37.193Z,1.00
2018-11-21T07:14:07.215Z,0.90
2018-11-21T07:16:35.509Z,0.90
2018-11-21T07:19:04.163Z,1.00
2018-11-21T07:21:32.858Z,1.00
2018-11-21T07:24:01.479Z,1.00
2018-11-21T07:26:30.182Z,1.00
2018-11-21T07:28:58.814Z,1.10
2018-11-21T07:31:27.368Z,1.10
2018-11-21T07:33:56.052Z,1.20
2018-11-21T07:36:24.893Z,1.20
2018-11-21T07:38:53.863Z,1.20
2018-11-21T07:41:22.471Z,1.30
2018-11-21T07:43:51.323Z,1.30
2018-11-21T07:46:20.049Z,1.40
2018-11-21T07:48:48.616Z,1.50
2018-11-21T07:51:17.401Z,1.50
2018-11-21T07:53:46.392Z,1.60
2018-11-21T07:57:02.853Z,1.60
2018-11-21T07:59:32.012Z,1.70
2018-11-21T08:02:12.507Z,1.80
2018-11-21T08:04:48.252Z,1.90
2018-11-21T08:07:30.595Z,2.10
2018-11-21T08:10:14.814Z,2.40
2018-11-21T08:13:05.462Z,2.60
2018-11-21T08:16:08.261Z,2.80
2018-11-21T08:19:02.082Z,2.90
2018-11-21T08:21:49.747Z,3.10
2018-11-21T08:24:37.503Z,3.20
2018-11-21T08:27:30.847Z,3.40
2018-11-21T08:29:59.384Z,3.70
2018-11-21T08:32:27.992Z,4.20
2018-11-21T08:34:58.780Z,4.70
2018-11-21T08:37:27.364Z,5.20
2018-11-21T08:39:56.052Z,5.40
2018-11-21T08:42:24.607Z,5.70
2018-11-21T08:44:53.325Z,5.90
2018-11-21T08:47:21.884Z,6.00
2018-11-21T08:49:50.449Z,5.90
2018-11-21T08:52:19.042Z,6.10
2018-11-21T08:54:47.666Z,6.50
2018-11-21T08:57:16.252Z,6.70
2018-11-21T08:59:44.807Z,6.90
2018-11-21T09:02:13.397Z,7.50
2018-11-21T09:04:42.562Z,7.70
2018-11-21T09:07:10.522Z,8.50
2018-11-21T09:09:39.061Z,9.20
2018-11-21T09:12:08.817Z,9.30
2018-11-21T09:14:36.205Z,9.50
2018-11-21T09:17:04.776Z,9.40
2018-11-21T09:19:33.364Z,9.70
2018-11-21T09:22:02.055Z,10.10
2018-11-21T09:24:30.686Z,10.40
2018-11-21T09:26:59.249Z,10.90
2018-11-21T09:29:27.837Z,10.90
2018-11-21T09:31:56.395Z,11.00
2018-11-21T09:34:24.929Z,9.90
2018-11-21T09:36:53.552Z,10.00
2018-11-21T09:39:22.138Z,10.00
2018-11-21T09:41:50.700Z,10.70
2018-11-21T09:44:19.267Z,11.40
2018-11-21T09:46:47.864Z,11.50
2018-11-21T09:49:16.422Z,11.90
2018-11-21T09:51:45.025Z,10.90
2018-11-21T09:54:13.623Z,11.30
2018-11-21T09:56:42.208Z,11.60
2018-11-21T09:59:13.382Z,11.50
2018-11-21T10:02:18.601Z,11.10
2018-11-21T10:04:47.329Z,11.00
2018-11-21T10:07:15.871Z,10.90
2018-11-21T10:09:46.292Z,10.40
2018-11-21T10:12:14.841Z,9.70
2018-11-21T10:14:43.429Z,9.00
2018-11-21T10:17:12.155Z,9.00
2018-11-21T10:19:40.912Z,9.40
2018-11-21T10:22:09.577Z,9.70
2018-11-21T10:24:38.171Z,8.70
2018-11-21T10:27:06.981Z,9.00
2018-11-21T10:29:35.602Z,10.20
2018-11-21T10:32:04.260Z,10.00
2018-11-21T10:34:32.840Z,9.90
2018-11-21T10:37:01.595Z,9.70
2018-11-21T10:39:30.348Z,8.90
2018-11-21T10:41:59.055Z,8.40
2018-11-21T10:44:27.581Z,8.80
2018-11-21T10:46:56.228Z,8.60
2018-11-21T10:49:24.931Z,8.90
2018-11-21T10:51:53.667Z,9.20
2018-11-21T10:54:22.215Z,9.30
2018-11-21T10:56:50.796Z,9.50
2018-11-21T10:59:19.348Z,8.80
2018-11-21T12:43:50.366Z,6.70
2018-11-21T12:46:43.839Z,6.90
2018-11-21T12:49:37.200Z,6.50
2018-11-21T12:52:12.672Z,6.30
2018-11-21T12:55:09.276Z,6.30
2018-11-21T12:58:00.046Z,6.20
2018-11-21T13:00:47.815Z,6.10
2018-11-21T13:03:41.212Z,6.00
2018-11-21T13:06:28.969Z,5.80
2018-11-21T13:09:21.812Z,5.70
2018-11-21T13:12:03.616Z,5.80
2018-11-21T13:14:46.326Z,5.80
2018-11-21T13:17:39.805Z,5.80
2018-11-21T13:20:42.539Z,5.70
2018-11-21T13:23:28.867Z,5.50
2018-11-21T13:26:12.447Z,5.30
2018-11-21T13:29:10.073Z,5.30
2018-11-21T13:31:57.050Z,5.20
2018-11-21T13:34:43.801Z,5.30
2018-11-21T13:37:29.894Z,5.40
2018-11-21T13:40:20.370Z,5.30
2018-11-21T13:43:23.298Z,5.10
2018-11-21T13:46:03.125Z,5.00
2018-11-21T13:48:55.656Z,5.00
2018-11-21T13:51:40.128Z,5.00
2018-11-21T13:54:30.402Z,4.90
2018-11-21T13:56:58.971Z,4.90
2018-11-21T13:59:27.584Z,4.80
2018-11-21T14:01:56.163Z,4.70
2018-11-21T14:04:24.802Z,4.60
2018-11-21T14:06:53.363Z,4.60
2018-11-21T14:09:23.019Z,4.50
2018-11-21T14:11:51.988Z,4.40
2018-11-21T14:14:20.808Z,4.40
2018-11-21T14:16:49.451Z,4.40
2018-11-21T14:19:18.066Z,4.40
2018-11-21T14:21:46.630Z,4.30
2018-11-21T14:24:15.248Z,4.20
2018-11-21T14:26:43.929Z,4.20
2018-11-21T14:29:12.541Z,4.10
2018-11-21T14:31:41.180Z,4.10
2018-11-21T14:34:09.755Z,4.00
2018-11-21T14:36:38.377Z,4.00
2018-11-21T14:39:10.310Z,4.00
2018-11-21T14:41:39.795Z,4.00
2018-11-21T14:44:08.827Z,4.00
2018-11-21T14:46:37.476Z,4.00
2018-11-21T14:49:06.697Z,4.00
2018-11-21T14:51:35.326Z,4.00
2018-11-21T14:54:03.874Z,3.90
2018-11-21T14:56:32.478Z,3.90
2018-11-21T14:59:01.098Z,3.90
2018-11-21T15:01:29.649Z,3.90
2018-11-21T15:03:58.203Z,4.00
2018-11-21T15:06:26.858Z,3.90
2018-11-21T15:08:55.367Z,3.90
2018-11-21T15:11:23.988Z,3.90
2018-11-21T15:13:52.547Z,3.90
2018-11-21T15:16:21.172Z,3.90
2018-11-21T15:18:49.726Z,3.90
2018-11-21T15:21:18.353Z,3.90
2018-11-21T15:23:47.004Z,3.90
2018-11-21T15:26:15.611Z,3.90
2018-11-21T15:28:44.387Z,3.90
2018-11-21T15:31:13.111Z,3.90
2018-11-21T15:33:41.699Z,3.80
2018-11-21T15:36:10.316Z,3.80
2018-11-21T15:38:38.882Z,3.80
2018-11-21T15:41:09.591Z,3.80
2018-11-21T15:43:38.206Z,3.80
2018-11-21T15:46:08.137Z,3.80
2018-11-21T15:48:36.704Z,3.80
2018-11-21T15:51:05.894Z,3.70
2018-11-21T15:53:34.448Z,3.70
2018-11-21T15:56:03.069Z,3.70
2018-11-21T15:58:31.636Z,3.60
2018-11-21T16:01:00.207Z,3.50
2018-11-21T16:03:28.829Z,3.60
2018-11-21T16:05:57.387Z,3.50
2018-11-21T16:08:25.997Z,3.40
2018-11-21T16:10:54.577Z,3.40
2018-11-21T16:13:23.187Z,3.30
2018-11-21T16:15:53.445Z,3.40
2018-11-21T16:18:23.833Z,3.40
2018-11-21T16:20:52.401Z,3.40
2018-11-21T16:23:21.008Z,3.50
2018-11-21T16:25:49.619Z,3.50
2018-11-21T16:28:18.227Z,3.50
2018-11-21T16:30:46.832Z,3.40
2018-11-21T16:33:15.479Z,3.40
2018-11-21T16:35:44.075Z,3.30
2018-11-21T16:38:12.730Z,3.40
2018-11-21T16:40:41.293Z,3.30
2018-11-21T16:43:09.913Z,3.30
2018-11-21T16:45:43.629Z,3.30
2018-11-21T16:48:12.342Z,3.20
2018-11-21T16:50:41.093Z,3.30
2018-11-21T16:53:09.799Z,3.30
2018-11-21T16:55:57.638Z,3.20
2018-11-21T16:58:26.205Z,3.20
2018-11-21T17:00:54.815Z,3.10
2018-11-21T17:03:23.391Z,3.00
2018-11-21T17:05:51.997Z,3.00
2018-11-21T17:08:20.552Z,3.00
2018-11-21T17:10:49.190Z,2.80
2018-11-21T17:13:17.826Z,2.80
2018-11-21T17:15:46.408Z,2.80
2018-11-21T17:18:15.049Z,2.70
2018-11-21T17:20:44.483Z,2.60
2018-11-21T17:23:13.089Z,2.60
2018-11-21T17:25:42.299Z,2.60
2018-11-21T17:28:10.909Z,2.60
2018-11-21T17:30:39.510Z,2.70
2018-11-21T17:33:08.068Z,2.70
2018-11-21T17:35:36.667Z,2.80
2018-11-21T17:38:05.232Z,3.00
2018-11-21T17:40:38.524Z,3.10
2018-11-21T17:43:07.108Z,3.20
2018-11-21T17:45:35.835Z,3.20
2018-11-21T17:48:04.639Z,3.30
2018-11-21T17:50:33.262Z,3.30
2018-11-21T17:53:04.024Z,3.40
2018-11-21T17:55:36.795Z,3.40
2018-11-21T17:58:05.558Z,3.50
2018-11-21T18:00:34.268Z,3.50
2018-11-21T18:03:02.840Z,3.50
2018-11-21T18:05:33.220Z,3.60
2018-11-21T18:08:01.832Z,3.60
2018-11-21T18:10:34.928Z,3.60
2018-11-21T18:13:03.535Z,3.60
2018-11-21T18:15:32.154Z,3.50
2018-11-21T18:18:00.771Z,3.60
2018-11-21T18:20:29.344Z,3.50
2018-11-21T18:22:57.993Z,3.60
2018-11-21T18:25:28.354Z,3.60
2018-11-21T18:27:57.067Z,3.60
2018-11-21T18:30:26.128Z,3.60
2018-11-21T18:32:54.777Z,3.60
2018-11-21T18:35:24.262Z,3.60
2018-11-21T18:37:52.931Z,3.60
2018-11-21T18:40:23.013Z,3.60
2018-11-21T18:42:51.624Z,3.60
2018-11-21T18:45:32.272Z,3.60
2018-11-21T18:48:00.950Z,3.60
2018-11-21T18:50:29.600Z,3.60
2018-11-21T18:52:59.407Z,3.60
2018-11-21T18:55:36.713Z,3.60
2018-11-21T18:58:23.259Z,3.60
2018-11-21T19:00:54.015Z,3.60
2018-11-21T19:03:22.632Z,3.50
2018-11-21T19:05:51.217Z,3.60
2018-11-21T19:08:19.833Z,3.60
2018-11-21T19:10:48.537Z,3.50
2018-11-21T19:13:17.112Z,3.50
2018-11-21T19:15:45.721Z,3.50
2018-11-21T19:18:14.354Z,3.50
2018-11-21T19:20:42.929Z,3.50
2018-11-21T19:23:11.495Z,3.50
2018-11-21T19:25:40.108Z,3.50
2018-11-21T19:28:08.674Z,3.50
2018-11-21T19:30:37.309Z,3.50
2018-11-21T19:33:06.231Z,3.50
2018-11-21T19:35:34.882Z,3.50
2018-11-21T19:38:03.566Z,3.50
2018-11-21T19:40:32.137Z,3.40
2018-11-21T19:43:00.763Z,3.40
2018-11-21T19:45:29.328Z,3.50
2018-11-21T19:47:57.964Z,3.40
2018-11-21T19:50:26.616Z,3.40
2018-11-21T19:52:55.233Z,3.40
2018-11-21T19:55:25.721Z,3.40
2018-11-21T19:57:54.288Z,3.50
2018-11-21T20:00:24.536Z,3.40
2018-11-21T20:02:53.339Z,3.40
2018-11-21T20:05:22.324Z,3.40
2018-11-21T20:07:51.124Z,3.40
2018-11-21T20:10:20.575Z,3.30
2018-11-21T20:12:49.194Z,3.30
2018-11-21T20:15:22.256Z,3.30
2018-11-21T20:17:52.613Z,3.30
2018-11-21T20:20:21.871Z,3.30
2018-11-21T20:22:51.011Z,3.30
2018-11-21T20:25:21.048Z,3.40
2018-11-21T20:28:13.993Z,3.40
2018-11-21T20:33:17.678Z,3.40
2018-11-21T20:35:46.481Z,3.40
2018-11-21T20:38:16.140Z,3.40
2018-11-21T20:40:45.148Z,3.40
2018-11-21T20:43:16.641Z,3.40
2018-11-21T20:45:45.618Z,3.40
2018-11-21T20:48:15.720Z,3.40
2018-11-21T20:50:44.466Z,3.30
2018-11-21T20:53:13.509Z,3.30
2018-11-21T20:55:43.207Z,3.30
2018-11-21T20:58:12.089Z,3.30
2018-11-21T21:00:41.191Z,3.30
2018-11-21T21:03:09.959Z,3.40
2018-11-21T21:05:38.524Z,3.30
2018-11-21T21:08:07.916Z,3.30
2018-11-21T21:10:44.017Z,3.30
2018-11-21T21:13:12.640Z,3.30
2018-11-21T21:15:41.193Z,3.30
2018-11-21T21:18:09.823Z,3.30
2018-11-21T21:20:39.207Z,3.40
2018-11-21T21:23:07.807Z,3.40
2018-11-21T21:25:36.605Z,3.40
2018-11-21T21:28:05.328Z,3.40
2018-11-21T21:30:34.565Z,3.30
2018-11-21T21:33:03.556Z,3.30
2018-11-21T21:35:33.376Z,3.30
2018-11-21T21:38:01.998Z,3.30
2018-11-21T21:40:30.764Z,3.30
2018-11-21T21:42:59.757Z,3.30
2018-11-21T21:45:29.903Z,3.20
2018-11-21T21:47:58.621Z,3.20
2018-11-21T21:50:28.737Z,3.20
2018-11-21T21:52:57.437Z,3.30
2018-11-21T21:55:27.483Z,3.30
2018-11-21T21:57:56.266Z,3.30
2018-11-21T22:00:26.287Z,3.30
2018-11-21T22:02:55.436Z,3.30
2018-11-21T22:05:24.429Z,3.30
2018-11-21T22:07:53.121Z,3.30
2018-11-21T22:10:22.495Z,3.30
2018-11-21T22:12:51.441Z,3.30
2018-11-21T22:15:30.352Z,3.20
2018-11-21T22:18:00.671Z,3.30
2018-11-21T22:20:29.461Z,3.20
2018-11-21T22:22:58.189Z,3.20
2018-11-21T22:25:26.989Z,3.20
2018-11-21T22:27:55.916Z,3.20
2018-11-21T22:30:25.037Z,3.20
2018-11-21T22:32:54.558Z,3.20
2018-11-21T22:35:25.211Z,3.20
2018-11-21T22:37:53.425Z,3.20
2018-11-21T22:40:22.575Z,3.20
2018-11-21T22:42:51.148Z,3.20
2018-11-21T22:45:20.754Z,3.20
2018-11-21T22:47:49.327Z,3.20
2018-11-21T22:50:21.985Z,3.20
2018-11-21T22:52:50.583Z,3.20
2018-11-21T22:55:19.294Z,3.20
2018-11-21T22:57:48.481Z,3.10
2018-11-21T23:00:39.258Z,3.20
2018-11-21T23:03:08.018Z,3.10
2018-11-21T23:05:37.693Z,3.20
2018-11-21T23:08:05.386Z,3.20
2018-11-21T23:10:33.992Z,3.10
2018-11-21T23:13:02.545Z,3.10
2018-11-21T23:15:31.148Z,3.10
2018-11-21T23:17:59.717Z,3.10
2018-11-21T23:20:28.324Z,3.10
2018-11-21T23:22:56.869Z,3.10
2018-11-21T23:25:25.468Z,3.10
2018-11-21T23:27:54.031Z,3.10
2018-11-21T23:30:22.637Z,3.10
2018-11-21T23:32:51.242Z,3.10
2018-11-21T23:35:20.754Z,3.00
2018-11-21T23:37:49.383Z,3.10
2018-11-21T23:40:18.240Z,3.10
2018-11-21T23:42:48.494Z,3.00
2018-11-21T23:45:17.598Z,3.00
2018-11-21T23:47:46.479Z,3.10
2018-11-21T23:50:16.146Z,3.10
2018-11-21T23:52:44.705Z,3.00
2018-11-21T23:55:15.807Z,3.00
2018-11-21T23:57:44.662Z,3.00
